createdAt,value
2023-01-10T00:03:13.167Z,2.60
2023-01-10T00:08:18.618Z,2.37
2023-01-10T00:13:24.813Z,2.80
2023-01-10T00:18:28.205Z,3.30
2023-01-10T00:23:32.713Z,2.50
2023-01-10T00:28:36.429Z,2.93
2023-01-10T00:33:40.022Z,2.70
2023-01-10T00:38:45.122Z,2.50
2023-01-10T00:44:00.071Z,3.17
2023-01-10T00:49:10.643Z,2.47
2023-01-10T00:54:16.458Z,2.10
2023-01-10T00:59:19.753Z,3.27
2023-01-10T01:04:23.555Z,3.60
2023-01-10T01:09:28.285Z,2.67
2023-01-10T01:14:31.365Z,3.03
2023-01-10T01:19:34.385Z,2.70
2023-01-10T01:24:39.507Z,2.93
2023-01-10T01:29:43.684Z,2.47
2023-01-10T01:34:47.075Z,2.50
2023-01-10T01:39:51.596Z,2.87
2023-01-10T01:45:32.503Z,2.53
2023-01-10T01:50:39.143Z,3.00
2023-01-10T01:55:46.092Z,2.90
2023-01-10T02:00:49.184Z,3.33
2023-01-10T02:05:53.624Z,2.60
2023-01-10T02:11:06.004Z,3.27
2023-01-10T02:16:09.441Z,2.63
2023-01-10T02:21:52.659Z,3.33
2023-01-10T02:27:15.557Z,2.97
2023-01-10T02:32:43.795Z,2.33
2023-01-10T02:37:58.623Z,3.10
2023-01-10T02:43:09.968Z,2.93
2023-01-10T02:48:14.522Z,3.33
2023-01-10T02:53:22.181Z,3.10
2023-01-10T02:58:37.791Z,2.70
2023-01-10T03:03:53.353Z,2.70
2023-01-10T03:09:06.649Z,2.57
2023-01-10T03:14:16.000Z,3.80
2023-01-10T03:19:24.470Z,3.70
2023-01-10T03:24:33.293Z,3.47
2023-01-10T03:29:43.476Z,3.77
2023-01-10T03:34:48.395Z,4.30
2023-01-10T03:39:56.503Z,2.70
2023-01-10T03:45:08.004Z,3.40
2023-01-10T03:50:17.492Z,3.13
2023-01-10T03:55:23.874Z,3.30
2023-01-10T04:00:27.225Z,3.03
2023-01-10T04:05:31.725Z,3.40
2023-01-10T04:10:34.851Z,3.17
2023-01-10T04:15:37.947Z,3.40
2023-01-10T04:20:42.370Z,3.10
2023-01-10T04:25:48.339Z,3.47
2023-01-10T04:30:52.904Z,3.17
2023-01-10T04:35:58.423Z,3.57
2023-01-10T04:41:01.569Z,4.07
2023-01-10T04:46:04.755Z,3.70
2023-01-10T04:51:09.179Z,3.57
2023-01-10T04:56:18.465Z,4.67
2023-01-10T05:01:24.973Z,3.70
2023-01-10T05:06:29.409Z,4.03
2023-01-10T05:11:32.484Z,3.60
2023-01-10T05:16:36.695Z,4.30
2023-01-10T05:21:41.311Z,4.30
2023-01-10T05:26:44.621Z,4.33
2023-01-10T05:31:47.592Z,4.03
2023-01-10T05:36:52.151Z,4.70
2023-01-10T05:41:55.138Z,4.53
2023-01-10T05:46:58.188Z,4.17
2023-01-10T05:52:02.707Z,3.43
2023-01-10T05:57:05.732Z,4.40
2023-01-10T06:02:08.874Z,3.80
2023-01-10T06:07:13.343Z,3.90
2023-01-10T06:12:18.711Z,5.77
2023-01-10T06:17:23.862Z,3.87
2023-01-10T06:22:29.476Z,4.13
2023-01-10T06:27:32.547Z,3.40
2023-01-10T06:32:35.678Z,3.97
2023-01-10T06:37:40.216Z,4.90
2023-01-10T06:42:43.437Z,4.97
2023-01-10T06:47:46.557Z,5.37
2023-01-10T06:52:58.108Z,4.57
2023-01-10T06:58:02.677Z,5.37
2023-01-10T07:03:07.737Z,4.60
2023-01-10T07:08:14.749Z,5.13
2023-01-10T07:13:17.710Z,5.20
2023-01-10T07:18:21.417Z,5.93
2023-01-10T07:23:31.127Z,5.10
2023-01-10T07:28:34.628Z,4.90
2023-01-10T07:33:40.855Z,4.90
2023-01-10T07:38:45.564Z,5.27
2023-01-10T07:43:49.321Z,4.93
2023-01-10T07:48:52.449Z,4.50
2023-01-10T07:53:56.906Z,5.83
2023-01-10T07:59:01.354Z,5.20
2023-01-10T08:04:04.550Z,4.80
2023-01-10T08:09:08.987Z,6.60
2023-01-10T08:14:12.184Z,4.73
2023-01-10T08:19:18.022Z,5.43
2023-01-10T08:24:25.323Z,4.67
2023-01-10T08:29:28.570Z,4.10
2023-01-10T08:34:31.743Z,4.80
2023-01-10T08:39:36.403Z,5.93
2023-01-10T08:44:39.558Z,4.67
2023-01-10T08:49:42.720Z,5.37
2023-01-10T08:54:47.214Z,4.67
2023-01-10T08:59:50.523Z,4.93
2023-01-10T09:04:53.760Z,5.13
2023-01-10T09:09:58.166Z,4.83
2023-01-10T09:15:01.179Z,6.33
2023-01-10T09:20:06.418Z,4.60
2023-01-10T09:25:11.390Z,4.27
2023-01-10T09:30:15.143Z,3.87
2023-01-10T09:35:18.557Z,4.47
2023-01-10T09:40:37.661Z,5.30
2023-01-10T09:45:49.747Z,4.80
2023-01-10T09:51:06.298Z,4.53
2023-01-10T09:56:11.588Z,4.00
2023-01-10T10:01:19.057Z,4.23
2023-01-10T10:06:26.230Z,3.77
2023-01-10T10:11:56.191Z,3.70
2023-01-10T10:17:12.936Z,3.73
2023-01-10T10:22:25.805Z,4.53
2023-01-10T10:27:39.156Z,4.43
2023-01-10T10:33:04.756Z,4.10
2023-01-10T10:38:13.924Z,4.50
2023-01-10T10:43:21.975Z,3.70
2023-01-10T10:48:29.688Z,5.17
2023-01-10T10:53:34.980Z,3.90
2023-01-10T10:58:43.212Z,4.20
2023-01-10T11:03:50.052Z,4.27
2023-01-10T11:08:56.360Z,3.80
2023-01-10T11:14:02.492Z,4.17
2023-01-10T11:19:19.570Z,4.03
2023-01-10T11:24:27.595Z,4.60
2023-01-10T11:29:40.970Z,4.13
2023-01-10T11:34:53.742Z,5.00
2023-01-10T11:40:23.781Z,4.97
2023-01-10T11:45:32.667Z,3.37
2023-01-10T11:50:41.040Z,3.50
2023-01-10T11:55:48.911Z,4.13
2023-01-10T12:00:53.501Z,3.67
2023-01-10T12:06:00.524Z,4.67
2023-01-10T12:11:06.903Z,4.10
2023-01-10T12:16:20.048Z,3.50
2023-01-10T12:21:35.569Z,3.37
2023-01-10T12:26:39.187Z,3.20
2023-01-10T12:31:43.924Z,3.97
2023-01-10T12:36:57.122Z,4.73
2023-01-10T12:42:32.447Z,3.60
2023-01-10T12:47:49.363Z,3.70
2023-01-10T12:53:01.294Z,3.50
2023-01-10T12:58:06.560Z,3.47
2023-01-10T13:03:14.651Z,4.97
2023-01-10T13:08:20.515Z,3.83
2023-01-10T13:13:31.337Z,4.90
2023-01-10T13:18:37.083Z,4.60
2023-01-10T13:23:47.662Z,3.37
2023-01-10T13:28:56.943Z,3.47
2023-01-10T13:34:06.113Z,5.20
2023-01-10T13:39:23.096Z,3.53
2023-01-10T13:44:26.295Z,4.77
2023-01-10T13:49:46.438Z,3.17
2023-01-10T13:54:58.357Z,4.03
2023-01-10T14:00:20.735Z,4.13
2023-01-10T14:05:25.294Z,4.20
2023-01-10T14:10:31.375Z,4.30
2023-01-10T14:15:40.378Z,4.27
2023-01-10T14:20:45.943Z,4.10
2023-01-10T14:25:54.742Z,4.33
2023-01-10T14:31:03.648Z,4.17
2023-01-10T14:36:16.222Z,4.10
2023-01-10T14:41:26.319Z,5.17
2023-01-10T14:46:34.650Z,3.73
2023-01-10T14:51:39.095Z,3.87
2023-01-10T14:56:46.709Z,4.20
2023-01-10T15:01:51.630Z,4.23
2023-01-10T15:06:58.535Z,3.60
2023-01-10T15:12:05.025Z,4.10
2023-01-10T15:17:20.139Z,4.77
2023-01-10T15:22:30.242Z,4.33
2023-01-10T15:27:40.338Z,3.97
2023-01-10T15:32:45.488Z,3.30
2023-01-10T15:37:56.299Z,3.10
2023-01-10T15:43:13.701Z,3.10
2023-01-10T15:48:27.570Z,2.77
2023-01-10T15:53:59.223Z,3.23
2023-01-10T15:59:04.083Z,3.10
2023-01-10T16:04:15.610Z,2.60
2023-01-10T16:09:22.739Z,2.40
2023-01-10T16:14:26.133Z,2.30
2023-01-10T16:19:29.361Z,2.40
2023-01-10T16:24:36.326Z,2.90
2023-01-10T16:29:39.353Z,2.13
2023-01-10T16:34:42.425Z,2.43
2023-01-10T16:39:47.071Z,2.47
2023-01-10T16:44:50.182Z,2.20
2023-01-10T16:49:57.483Z,2.63
2023-01-10T16:55:03.277Z,2.30
2023-01-10T17:00:07.115Z,2.30
2023-01-10T17:05:10.409Z,2.40
2023-01-10T17:10:14.822Z,2.47
2023-01-10T17:15:18.150Z,2.70
2023-01-10T17:20:24.404Z,2.23
2023-01-10T17:25:28.824Z,2.70
2023-01-10T17:30:31.988Z,2.40
2023-01-10T17:35:35.449Z,3.00
2023-01-10T17:40:42.304Z,2.60
2023-01-10T17:45:47.267Z,2.70
2023-01-10T17:51:44.989Z,3.27
2023-01-10T17:56:49.620Z,3.73
2023-01-10T18:01:55.848Z,2.87
2023-01-10T18:07:00.567Z,3.07
2023-01-10T18:12:05.897Z,3.20
2023-01-10T18:17:11.393Z,3.20
2023-01-10T18:22:34.861Z,3.73
2023-01-10T18:27:43.743Z,3.30
2023-01-10T18:32:46.798Z,3.27
2023-01-10T18:37:50.047Z,2.77
2023-01-10T18:43:29.352Z,2.87
2023-01-10T18:48:32.800Z,2.73
2023-01-10T18:53:35.940Z,3.17
2023-01-10T18:58:42.142Z,2.80
2023-01-10T19:03:46.368Z,2.60
2023-01-10T19:08:51.163Z,2.87
2023-01-10T19:14:00.716Z,2.83
2023-01-10T19:19:05.625Z,2.50
2023-01-10T19:24:23.524Z,2.93
2023-01-10T19:29:30.390Z,3.27
2023-01-10T19:34:36.653Z,2.97
2023-01-10T19:39:39.715Z,3.30
2023-01-10T19:44:44.910Z,2.80
2023-01-10T19:49:48.028Z,3.23
2023-01-10T19:54:52.839Z,3.50
2023-01-10T20:00:00.411Z,3.53
2023-01-10T20:05:07.409Z,3.90
2023-01-10T20:10:11.778Z,3.90
2023-01-10T20:15:17.105Z,4.10
2023-01-10T20:20:20.723Z,4.30
2023-01-10T20:25:23.902Z,3.70
2023-01-10T20:30:28.448Z,3.93
2023-01-10T20:35:31.737Z,4.03
2023-01-10T20:40:45.420Z,4.40
2023-01-10T20:45:49.936Z,5.10
2023-01-10T20:50:55.649Z,5.00
2023-01-10T20:56:03.400Z,5.37
2023-01-10T21:01:08.483Z,5.80
2023-01-10T21:06:12.076Z,6.97
2023-01-10T21:11:16.733Z,5.90
2023-01-10T21:16:22.607Z,5.80
2023-01-10T21:21:25.921Z,5.20
2023-01-10T21:26:28.916Z,4.60
2023-01-10T21:31:34.863Z,4.27
2023-01-10T21:36:38.314Z,3.93
2023-01-10T21:41:58.651Z,4.40
2023-01-10T21:47:03.768Z,4.33
2023-01-10T21:52:06.995Z,4.60
2023-01-10T21:57:10.096Z,4.47
2023-01-10T22:02:15.871Z,4.67
2023-01-10T22:07:19.708Z,5.10
2023-01-10T22:12:25.071Z,4.97
2023-01-10T22:17:29.934Z,4.90
2023-01-10T22:22:33.030Z,5.50
2023-01-10T22:27:36.033Z,5.00
2023-01-10T22:32:40.515Z,4.93
2023-01-10T22:37:43.536Z,5.00
2023-01-10T22:42:46.850Z,4.83
2023-01-10T22:47:53.714Z,4.50
2023-01-10T22:52:56.923Z,4.53
2023-01-10T22:57:59.945Z,4.60
2023-01-10T23:03:04.668Z,4.07
2023-01-10T23:08:07.945Z,5.00
2023-01-10T23:13:11.041Z,4.17
2023-01-10T23:18:16.503Z,4.10
2023-01-10T23:23:19.531Z,4.63
2023-01-10T23:28:25.181Z,4.60
2023-01-10T23:33:29.691Z,3.90
2023-01-10T23:38:33.119Z,4.37
2023-01-10T23:43:36.423Z,3.77
2023-01-10T23:48:43.085Z,3.87
2023-01-10T23:54:19.521Z,4.33
2023-01-10T23:59:23.651Z,3.73
